sensor_id;sensor_type;location;lat;lon;timestamp;pressure;altitude;pressure_sealevel;temperature;humidity
49825;BME280;35714;55.708;37.478;2022-11-20T00:01:07;99391.06;;;0.51;65.44
49825;BME280;35714;55.708;37.478;2022-11-20T00:03:33;99387.06;;;0.55;65.29
49825;BME280;35714;55.708;37.478;2022-11-20T00:06:03;99391.69;;;0.61;65.52
49825;BME280;35714;55.708;37.478;2022-11-20T00:08:29;99383.34;;;0.64;65.35
49825;BME280;35714;55.708;37.478;2022-11-20T00:10:55;99394.69;;;0.66;64.89
49825;BME280;35714;55.708;37.478;2022-11-20T00:13:21;99387.69;;;0.65;65.20
49825;BME280;35714;55.708;37.478;2022-11-20T00:15:46;99375.66;;;0.61;64.81
49825;BME280;35714;55.708;37.478;2022-11-20T00:18:12;99386.00;;;0.64;65.04
49825;BME280;35714;55.708;37.478;2022-11-20T00:20:38;99396.34;;;0.67;65.01
49825;BME280;35714;55.708;37.478;2022-11-20T00:23:03;99395.03;;;0.63;64.79
49825;BME280;35714;55.708;37.478;2022-11-20T00:25:29;99395.03;;;0.63;64.62
49825;BME280;35714;55.708;37.478;2022-11-20T00:27:55;99391.69;;;0.61;64.72
49825;BME280;35714;55.708;37.478;2022-11-20T00:30:20;99398.53;;;0.64;64.77
49825;BME280;35714;55.708;37.478;2022-11-20T00:32:46;99400.38;;;0.63;64.13
49825;BME280;35714;55.708;37.478;2022-11-20T00:35:12;99393.38;;;0.54;64.46
49825;BME280;35714;55.708;37.478;2022-11-20T00:37:38;99389.03;;;0.53;64.71
49825;BME280;35714;55.708;37.478;2022-11-20T00:40:04;99399.53;;;0.54;64.66
49825;BME280;35714;55.708;37.478;2022-11-20T00:42:30;99398.72;;;0.54;64.63
49825;BME280;35714;55.708;37.478;2022-11-20T00:44:58;99396.91;;;0.46;64.31
49825;BME280;35714;55.708;37.478;2022-11-20T00:47:23;99389.72;;;0.47;64.68
49825;BME280;35714;55.708;37.478;2022-11-20T00:49:49;99396.75;;;0.48;64.60
49825;BME280;35714;55.708;37.478;2022-11-20T00:52:15;99395.41;;;0.44;64.55
49825;BME280;35714;55.708;37.478;2022-11-20T00:54:40;99393.06;;;0.41;64.53
49825;BME280;35714;55.708;37.478;2022-11-20T00:57:06;99395.25;;;0.37;64.42
49825;BME280;35714;55.708;37.478;2022-11-20T00:59:32;99402.44;;;0.37;64.71
49825;BME280;35714;55.708;37.478;2022-11-20T01:01:57;99400.41;;;0.39;64.76
49825;BME280;35714;55.708;37.478;2022-11-20T01:04:23;99396.41;;;0.43;64.45
49825;BME280;35714;55.708;37.478;2022-11-20T01:06:49;99397.91;;;0.45;64.33
49825;BME280;35714;55.708;37.478;2022-11-20T01:09:14;99403.75;;;0.49;64.29
49825;BME280;35714;55.708;37.478;2022-11-20T01:11:42;99402.72;;;0.50;64.17
49825;BME280;35714;55.708;37.478;2022-11-20T01:14:15;99396.41;;;0.51;64.00
49825;BME280;35714;55.708;37.478;2022-11-20T01:16:44;99395.22;;;0.45;63.74
49825;BME280;35714;55.708;37.478;2022-11-20T01:19:13;99398.91;;;0.36;63.52
49825;BME280;35714;55.708;37.478;2022-11-20T01:21:41;99400.28;;;0.32;63.66
49825;BME280;35714;55.708;37.478;2022-11-20T01:24:09;99395.09;;;0.30;63.94
49825;BME280;35714;55.708;37.478;2022-11-20T01:26:37;99394.59;;;0.35;63.82
49825;BME280;35714;55.708;37.478;2022-11-20T01:29:04;99395.75;;;0.41;63.88
49825;BME280;35714;55.708;37.478;2022-11-20T01:31:32;99394.91;;;0.40;63.30
49825;BME280;35714;55.708;37.478;2022-11-20T01:34:00;99408.09;;;0.42;63.24
49825;BME280;35714;55.708;37.478;2022-11-20T01:36:29;99393.06;;;0.41;63.20
49825;BME280;35714;55.708;37.478;2022-11-20T01:38:59;99398.44;;;0.32;62.76
49825;BME280;35714;55.708;37.478;2022-11-20T01:41:27;99404.09;;;0.29;63.23
49825;BME280;35714;55.708;37.478;2022-11-20T01:44:14;99400.44;;;0.30;63.28
49825;BME280;35714;55.708;37.478;2022-11-20T01:52:02;99417.41;;;0.38;63.22
49825;BME280;35714;55.708;37.478;2022-11-20T01:54:44;99425.75;;;0.43;62.90
49825;BME280;35714;55.708;37.478;2022-11-20T01:57:12;99412.41;;;0.34;62.80
49825;BME280;35714;55.708;37.478;2022-11-20T01:59:43;99427.75;;;0.32;62.49
49825;BME280;35714;55.708;37.478;2022-11-20T02:02:10;99438.44;;;0.24;62.50
49825;BME280;35714;55.708;37.478;2022-11-20T02:04:36;99435.78;;;0.16;62.60
49825;BME280;35714;55.708;37.478;2022-11-20T02:07:03;99436.13;;;0.13;62.91
49825;BME280;35714;55.708;37.478;2022-11-20T02:09:30;99441.44;;;0.13;62.76
49825;BME280;35714;55.708;37.478;2022-11-20T02:11:57;99432.78;;;0.11;62.80
49825;BME280;35714;55.708;37.478;2022-11-20T02:14:24;99437.94;;;0.12;62.88
49825;BME280;35714;55.708;37.478;2022-11-20T02:16:50;99441.44;;;0.13;62.87
49825;BME280;35714;55.708;37.478;2022-11-20T02:19:23;99449.63;;;0.11;62.82
49825;BME280;35714;55.708;37.478;2022-11-20T02:24:28;99451.59;;;0.09;62.93
49825;BME280;35714;55.708;37.478;2022-11-20T02:27:01;99459.25;;;0.12;62.96
49825;BME280;35714;55.708;37.478;2022-11-20T02:29:32;99455.44;;;0.15;63.01
49825;BME280;35714;55.708;37.478;2022-11-20T02:32:00;99451.78;;;0.16;62.96
49825;BME280;35714;55.708;37.478;2022-11-20T02:34:27;99456.94;;;0.17;62.87
49825;BME280;35714;55.708;37.478;2022-11-20T02:36:54;99470.78;;;0.21;62.66
49825;BME280;35714;55.708;37.478;2022-11-20T02:39:24;99459.09;;;0.14;62.51
49825;BME280;35714;55.708;37.478;2022-11-20T02:41:53;99455.78;;;0.12;62.70
49825;BME280;35714;55.708;37.478;2022-11-20T02:44:19;99455.78;;;0.12;62.56
49825;BME280;35714;55.708;37.478;2022-11-20T02:46:45;99463.94;;;0.10;62.69
49825;BME280;35714;55.708;37.478;2022-11-20T02:49:11;99454.44;;;0.08;62.37
49825;BME280;35714;55.708;37.478;2022-11-20T02:51:37;99469.09;;;0.04;62.60
49825;BME280;35714;55.708;37.478;2022-11-20T02:54:04;99462.75;;;0.05;62.76
49825;BME280;35714;55.708;37.478;2022-11-20T02:56:30;99466.44;;;0.04;62.73
49825;BME280;35714;55.708;37.478;2022-11-20T02:58:56;99469.44;;;0.01;62.56
49825;BME280;35714;55.708;37.478;2022-11-20T03:01:22;99464.09;;;0.01;62.54
49825;BME280;35714;55.708;37.478;2022-11-20T03:03:47;99471.78;;;0.04;62.79
49825;BME280;35714;55.708;37.478;2022-11-20T03:06:17;99467.09;;;0.06;62.81
49825;BME280;35714;55.708;37.478;2022-11-20T03:08:43;99448.44;;;-0.03;62.51
49825;BME280;35714;55.708;37.478;2022-11-20T03:11:10;99465.78;;;0.10;62.62
49825;BME280;35714;55.708;37.478;2022-11-20T03:13:35;99464.44;;;0.14;62.53
49825;BME280;35714;55.708;37.478;2022-11-20T03:16:12;99468.78;;;0.15;61.96
49825;BME280;35714;55.708;37.478;2022-11-20T03:18:39;99479.13;;;0.10;62.16
49825;BME280;35714;55.708;37.478;2022-11-20T03:21:05;99467.94;;;0.06;62.27
49825;BME280;35714;55.708;37.478;2022-11-20T03:23:32;99470.44;;;0.08;62.34
49825;BME280;35714;55.708;37.478;2022-11-20T03:28:33;99464.75;;;0.11;62.39
49825;BME280;35714;55.708;37.478;2022-11-20T03:31:05;99476.44;;;0.18;62.56
49825;BME280;35714;55.708;37.478;2022-11-20T03:33:31;99472.78;;;0.19;62.23
49825;BME280;35714;55.708;37.478;2022-11-20T03:36:01;99483.13;;;0.22;62.10
49825;BME280;35714;55.708;37.478;2022-11-20T03:38:29;99484.94;;;0.22;61.98
49825;BME280;35714;55.708;37.478;2022-11-20T03:41:04;99471.28;;;0.16;61.89
49825;BME280;35714;55.708;37.478;2022-11-20T03:43:30;99479.13;;;0.10;61.66
49825;BME280;35714;55.708;37.478;2022-11-20T03:45:56;99478.09;;;0.03;61.90
49825;BME280;35714;55.708;37.478;2022-11-20T03:48:22;99478.09;;;0.03;61.98
49825;BME280;35714;55.708;37.478;2022-11-20T03:50:47;99481.75;;;0.02;62.14
49825;BME280;35714;55.708;37.478;2022-11-20T03:53:14;99491.59;;;0.01;62.08
49825;BME280;35714;55.708;37.478;2022-11-20T03:55:40;99490.75;;;0.01;61.95
49825;BME280;35714;55.708;37.478;2022-11-20T03:58:05;99491.09;;;-0.03;62.13
49825;BME280;35714;55.708;37.478;2022-11-20T04:00:31;99490.75;;;0.01;62.04
49825;BME280;35714;55.708;37.478;2022-11-20T04:02:58;99502.75;;;0.05;61.99
49825;BME280;35714;55.708;37.478;2022-11-20T04:05:24;99491.41;;;0.03;61.72
49825;BME280;35714;55.708;37.478;2022-11-20T04:07:50;99498.44;;;0.04;61.97
49825;BME280;35714;55.708;37.478;2022-11-20T04:10:15;99505.78;;;0.10;62.09
49825;BME280;35714;55.708;37.478;2022-11-20T04:12:41;99502.09;;;0.11;61.82
49825;BME280;35714;55.708;37.478;2022-11-20T04:15:07;99506.44;;;0.12;61.88
49825;BME280;35714;55.708;37.478;2022-11-20T04:17:33;99504.75;;;0.11;61.88
49825;BME280;35714;55.708;37.478;2022-11-20T04:19:58;99518.44;;;0.16;62.00
49825;BME280;35714;55.708;37.478;2022-11-20T04:22:24;99521.09;;;0.16;61.67
49825;BME280;35714;55.708;37.478;2022-11-20T04:24:50;99520.78;;;0.19;61.70
49825;BME280;35714;55.708;37.478;2022-11-20T04:27:15;99525.78;;;0.22;61.67
49825;BME280;35714;55.708;37.478;2022-11-20T04:29:41;99524.75;;;0.23;61.77
49825;BME280;35714;55.708;37.478;2022-11-20T04:32:07;99527.44;;;0.31;61.79
49825;BME280;35714;55.708;37.478;2022-11-20T04:34:33;99532.25;;;0.36;61.67
49825;BME280;35714;55.708;37.478;2022-11-20T04:36:58;99523.28;;;0.37;61.53
49825;BME280;35714;55.708;37.478;2022-11-20T04:39:24;99520.78;;;0.35;61.56
49825;BME280;35714;55.708;37.478;2022-11-20T04:41:50;99525.78;;;0.39;61.32
49825;BME280;35714;55.708;37.478;2022-11-20T04:44:35;99536.44;;;0.39;61.34
49825;BME280;35714;55.708;37.478;2022-11-20T04:47:01;99541.78;;;0.39;61.33
49825;BME280;35714;55.708;37.478;2022-11-20T04:49:26;99548.78;;;0.40;61.27
49825;BME280;35714;55.708;37.478;2022-11-20T04:51:55;99557.13;;;0.37;61.29
49825;BME280;35714;55.708;37.478;2022-11-20T04:54:21;99552.28;;;0.32;61.29
49825;BME280;35714;55.708;37.478;2022-11-20T04:56:50;99559.75;;;0.28;61.01
49825;BME280;35714;55.708;37.478;2022-11-20T04:59:15;99555.78;;;0.24;60.97
49825;BME280;35714;55.708;37.478;2022-11-20T05:01:41;99559.75;;;0.20;61.14
49825;BME280;35714;55.708;37.478;2022-11-20T05:04:07;99567.09;;;0.18;61.01
49825;BME280;35714;55.708;37.478;2022-11-20T05:06:33;99551.44;;;0.15;61.29
49825;BME280;35714;55.708;37.478;2022-11-20T05:08:59;99561.94;;;0.16;61.08
49825;BME280;35714;55.708;37.478;2022-11-20T05:11:26;99574.94;;;0.11;61.04
49825;BME280;35714;55.708;37.478;2022-11-20T05:13:54;99574.56;;;0.06;61.03
49825;BME280;35714;55.708;37.478;2022-11-20T05:16:22;99580.72;;;-0.02;61.19
49825;BME280;35714;55.708;37.478;2022-11-20T05:18:49;99583.72;;;-0.05;61.24
49825;BME280;35714;55.708;37.478;2022-11-20T05:21:16;99572.38;;;-0.07;61.45
49825;BME280;35714;55.708;37.478;2022-11-20T05:23:42;99583.72;;;-0.05;61.53
49825;BME280;35714;55.708;37.478;2022-11-20T05:26:12;99576.88;;;-0.07;61.56
49825;BME280;35714;55.708;37.478;2022-11-20T05:28:38;99585.69;;;-0.07;61.62
49825;BME280;35714;55.708;37.478;2022-11-20T05:31:06;99591.56;;;-0.03;61.76
49825;BME280;35714;55.708;37.478;2022-11-20T05:33:33;99598.72;;;0.05;61.78
49825;BME280;35714;55.708;37.478;2022-11-20T05:35:59;99598.38;;;0.08;61.58
49825;BME280;35714;55.708;37.478;2022-11-20T05:38:25;99601.75;;;0.10;61.51
49825;BME280;35714;55.708;37.478;2022-11-20T05:40:50;99600.06;;;0.09;61.62
49825;BME280;35714;55.708;37.478;2022-11-20T05:43:16;99605.06;;;0.12;61.52
49825;BME280;35714;55.708;37.478;2022-11-20T05:45:42;99608.41;;;0.14;61.57
49825;BME280;35714;55.708;37.478;2022-11-20T05:48:07;99601.91;;;0.16;61.54
49825;BME280;35714;55.708;37.478;2022-11-20T05:50:33;99609.09;;;0.16;61.27
49825;BME280;35714;55.708;37.478;2022-11-20T05:52:59;99614.78;;;0.21;61.45
49825;BME280;35714;55.708;37.478;2022-11-20T05:55:26;99619.78;;;0.24;61.31
49825;BME280;35714;55.708;37.478;2022-11-20T05:57:53;99621.09;;;0.28;61.23
49825;BME280;35714;55.708;37.478;2022-11-20T06:00:20;99626.09;;;0.31;61.40
49825;BME280;35714;55.708;37.478;2022-11-20T06:02:46;99634.47;;;0.37;61.16
49825;BME280;35714;55.708;37.478;2022-11-20T06:05:12;99637.81;;;0.39;60.99
49825;BME280;35714;55.708;37.478;2022-11-20T06:07:37;99640.63;;;0.37;61.12
49825;BME280;35714;55.708;37.478;2022-11-20T06:10:03;99635.13;;;0.39;61.20
49825;BME280;35714;55.708;37.478;2022-11-20T06:12:31;99643.47;;;0.44;61.03
49825;BME280;35714;55.708;37.478;2022-11-20T06:14:58;99644.50;;;0.43;60.82
49825;BME280;35714;55.708;37.478;2022-11-20T06:17:24;99647.50;;;0.48;60.86
49825;BME280;35714;55.708;37.478;2022-11-20T06:19:50;99659.16;;;0.47;60.91
49825;BME280;35714;55.708;37.478;2022-11-20T06:22:15;99661.50;;;0.50;60.74
49825;BME280;35714;55.708;37.478;2022-11-20T06:24:41;99661.16;;;0.53;60.49
49825;BME280;35714;55.708;37.478;2022-11-20T06:27:07;99672.53;;;0.63;60.76
49825;BME280;35714;55.708;37.478;2022-11-20T06:29:32;99677.22;;;0.69;60.55
49825;BME280;35714;55.708;37.478;2022-11-20T06:31:58;99683.88;;;0.74;60.24
49825;BME280;35714;55.708;37.478;2022-11-20T06:34:23;99678.91;;;0.79;60.16
49825;BME280;35714;55.708;37.478;2022-11-20T06:36:49;99669.53;;;0.83;60.18
49825;BME280;35714;55.708;37.478;2022-11-20T06:39:15;99670.72;;;0.88;59.97
49825;BME280;35714;55.708;37.478;2022-11-20T06:41:40;99674.22;;;0.97;59.69
49825;BME280;35714;55.708;37.478;2022-11-20T06:44:06;99673.88;;;1.00;59.42
49825;BME280;35714;55.708;37.478;2022-11-20T06:46:32;99669.41;;;1.01;59.38
49825;BME280;35714;55.708;37.478;2022-11-20T06:48:58;99666.56;;;1.02;59.41
49825;BME280;35714;55.708;37.478;2022-11-20T06:51:23;99665.38;;;1.05;59.02
49825;BME280;35714;55.708;37.478;2022-11-20T06:53:49;99667.53;;;1.10;59.27
49825;BME280;35714;55.708;37.478;2022-11-20T06:56:15;99659.84;;;1.15;59.31
49825;BME280;35714;55.708;37.478;2022-11-20T06:58:41;99659.19;;;1.21;59.12
49825;BME280;35714;55.708;37.478;2022-11-20T07:01:12;99664.72;;;1.28;58.47
49825;BME280;35714;55.708;37.478;2022-11-20T07:03:38;99657.69;;;1.26;58.51
49825;BME280;35714;55.708;37.478;2022-11-20T07:06:04;99661.69;;;1.22;58.44
49825;BME280;35714;55.708;37.478;2022-11-20T07:08:31;99655.84;;;1.19;58.49
49825;BME280;35714;55.708;37.478;2022-11-20T07:10:58;99664.88;;;1.18;58.51
49825;BME280;35714;55.708;37.478;2022-11-20T07:13:25;99673.56;;;1.20;58.77
49825;BME280;35714;55.708;37.478;2022-11-20T07:15:51;99671.72;;;1.20;58.43
49825;BME280;35714;55.708;37.478;2022-11-20T07:18:17;99669.03;;;1.20;58.38
49825;BME280;35714;55.708;37.478;2022-11-20T07:20:43;99660.88;;;1.22;58.45
49825;BME280;35714;55.708;37.478;2022-11-20T07:23:08;99670.22;;;1.26;58.33
49825;BME280;35714;55.708;37.478;2022-11-20T07:25:34;99675.72;;;1.33;58.17
49825;BME280;35714;55.708;37.478;2022-11-20T07:28:00;99672.56;;;1.29;58.08
49825;BME280;35714;55.708;37.478;2022-11-20T07:30:27;99678.06;;;1.36;58.15
49825;BME280;35714;55.708;37.478;2022-11-20T07:32:54;99687.22;;;1.41;57.81
49825;BME280;35714;55.708;37.478;2022-11-20T07:35:21;99688.06;;;1.42;57.93
49825;BME280;35714;55.708;37.478;2022-11-20T07:37:47;99690.41;;;1.45;57.97
49825;BME280;35714;55.708;37.478;2022-11-20T07:40:17;99682.53;;;1.52;57.99
49825;BME280;35714;55.708;37.478;2022-11-20T07:42:53;99683.03;;;1.55;57.66
49825;BME280;35714;55.708;37.478;2022-11-20T07:45:21;99682.84;;;1.65;57.84
49825;BME280;35714;55.708;37.478;2022-11-20T07:47:47;99680.50;;;1.70;57.54
49825;BME280;35714;55.708;37.478;2022-11-20T07:50:13;99694.81;;;1.77;57.49
49825;BME280;35714;55.708;37.478;2022-11-20T07:52:39;99698.00;;;1.81;57.59
49825;BME280;35714;55.708;37.478;2022-11-20T07:55:06;99698.50;;;1.85;57.24
49825;BME280;35714;55.708;37.478;2022-11-20T07:57:32;99687.84;;;1.76;56.96
49825;BME280;35714;55.708;37.478;2022-11-20T07:59:58;99695.84;;;1.76;57.40
49825;BME280;35714;55.708;37.478;2022-11-20T08:02:24;99699.34;;;1.77;57.42
49825;BME280;35714;55.708;37.478;2022-11-20T08:04:50;99702.84;;;1.77;57.29
49825;BME280;35714;55.708;37.478;2022-11-20T08:07:16;99702.03;;;1.77;57.17
49825;BME280;35714;55.708;37.478;2022-11-20T08:09:41;99698.53;;;1.68;56.89
49825;BME280;35714;55.708;37.478;2022-11-20T08:12:19;99689.84;;;1.66;57.16
49825;BME280;35714;55.708;37.478;2022-11-20T08:15:05;99706.91;;;1.65;57.30
49825;BME280;35714;55.708;37.478;2022-11-20T08:17:31;99721.59;;;1.69;57.13
49825;BME280;35714;55.708;37.478;2022-11-20T08:19:57;99722.91;;;1.73;57.42
49825;BME280;35714;55.708;37.478;2022-11-20T08:22:22;99708.53;;;1.74;57.12
49825;BME280;35714;55.708;37.478;2022-11-20T08:24:48;99701.19;;;1.76;56.93
49825;BME280;35714;55.708;37.478;2022-11-20T08:27:14;99704.53;;;1.78;57.00
49825;BME280;35714;55.708;37.478;2022-11-20T08:29:40;99723.88;;;1.80;56.65
49825;BME280;35714;55.708;37.478;2022-11-20T08:32:05;99722.94;;;1.65;56.11
49825;BME280;35714;55.708;37.478;2022-11-20T08:34:31;99719.97;;;1.43;56.58
49825;BME280;35714;55.708;37.478;2022-11-20T08:36:56;99715.97;;;1.31;56.93
49825;BME280;35714;55.708;37.478;2022-11-20T08:39:22;99724.63;;;1.25;57.36
49825;BME280;35714;55.708;37.478;2022-11-20T08:41:48;99725.47;;;1.17;57.72
49825;BME280;35714;55.708;37.478;2022-11-20T08:44:13;99721.97;;;1.17;57.86
49825;BME280;35714;55.708;37.478;2022-11-20T08:46:41;99728.63;;;1.21;57.83
49825;BME280;35714;55.708;37.478;2022-11-20T08:49:09;99728.63;;;1.21;57.82
49825;BME280;35714;55.708;37.478;2022-11-20T08:51:36;99744.81;;;1.11;57.97
49825;BME280;35714;55.708;37.478;2022-11-20T08:54:04;99746.00;;;1.08;58.11
49825;BME280;35714;55.708;37.478;2022-11-20T08:56:30;99742.66;;;1.06;58.20
49825;BME280;35714;55.708;37.478;2022-11-20T08:58:56;99749.50;;;1.01;58.21
49825;BME280;35714;55.708;37.478;2022-11-20T09:01:23;99750.66;;;0.98;58.05
49825;BME280;35714;55.708;37.478;2022-11-20T09:03:49;99761.50;;;0.88;58.75
49825;BME280;35714;55.708;37.478;2022-11-20T09:06:15;99774.69;;;0.90;58.85
49825;BME280;35714;55.708;37.478;2022-11-20T09:08:41;99768.69;;;0.96;58.40
49825;BME280;35714;55.708;37.478;2022-11-20T09:11:08;99782.00;;;0.88;58.58
49825;BME280;35714;55.708;37.478;2022-11-20T09:13:35;99770.63;;;0.78;58.87
49825;BME280;35714;55.708;37.478;2022-11-20T09:16:06;99786.34;;;0.89;59.05
49825;BME280;35714;55.708;37.478;2022-11-20T09:18:34;99791.53;;;0.90;59.44
49825;BME280;35714;55.708;37.478;2022-11-20T09:21:04;99793.03;;;0.93;59.18
49825;BME280;35714;55.708;37.478;2022-11-20T09:23:35;99803.66;;;0.85;59.40
49825;BME280;35714;55.708;37.478;2022-11-20T09:26:05;99812.84;;;0.74;60.13
49825;BME280;35714;55.708;37.478;2022-11-20T09:28:32;99814.97;;;0.70;60.45
49825;BME280;35714;55.708;37.478;2022-11-20T09:30:59;99818.50;;;0.71;60.37
49825;BME280;35714;55.708;37.478;2022-11-20T09:33:24;99818.81;;;0.68;60.65
49825;BME280;35714;55.708;37.478;2022-11-20T09:35:50;99832.00;;;0.69;60.77
49825;BME280;35714;55.708;37.478;2022-11-20T09:38:16;99821.84;;;0.73;61.01
49825;BME280;35714;55.708;37.478;2022-11-20T09:41:02;99819.66;;;0.77;60.94
49825;BME280;35714;55.708;37.478;2022-11-20T09:43:49;99820.28;;;0.62;61.43
49825;BME280;35714;55.708;37.478;2022-11-20T09:46:28;99828.59;;;0.51;61.75
49825;BME280;35714;55.708;37.478;2022-11-20T09:49:19;99820.91;;;0.48;62.30
49825;BME280;35714;55.708;37.478;2022-11-20T09:54:31;99813.56;;;0.50;62.35
49825;BME280;35714;55.708;37.478;2022-11-20T09:57:01;99824.94;;;0.52;62.45
49825;BME280;35714;55.708;37.478;2022-11-20T09:59:42;99832.25;;;0.50;62.62
49825;BME280;35714;55.708;37.478;2022-11-20T10:04:57;99835.44;;;0.19;63.61
49825;BME280;35714;55.708;37.478;2022-11-20T10:08:03;99837.94;;;0.21;63.52
49825;BME280;35714;55.708;37.478;2022-11-20T10:10:46;99831.72;;;0.12;63.78
49825;BME280;35714;55.708;37.478;2022-11-20T10:29:46;99854.22;;;0.44;63.25
49825;BME280;35714;55.708;37.478;2022-11-20T10:32:17;99853.50;;;0.33;63.34
49825;BME280;35714;55.708;37.478;2022-11-20T10:35:00;99851.13;;;0.22;63.88
49825;BME280;35714;55.708;37.478;2022-11-20T10:37:31;99845.78;;;0.22;63.92
49825;BME280;35714;55.708;37.478;2022-11-20T10:43:02;99842.53;;;0.37;63.31
49825;BME280;35714;55.708;37.478;2022-11-20T10:48:23;99857.00;;;0.34;63.05
49825;BME280;35714;55.708;37.478;2022-11-20T10:51:06;99862.81;;;0.29;63.38
49825;BME280;35714;55.708;37.478;2022-11-20T10:56:25;99873.34;;;0.39;63.18
49825;BME280;35714;55.708;37.478;2022-11-20T10:59:00;99868.72;;;0.41;62.20
49825;BME280;35714;55.708;37.478;2022-11-20T11:01:28;99869.13;;;0.28;62.72
49825;BME280;35714;55.708;37.478;2022-11-20T11:03:55;99866.47;;;0.28;62.03
49825;BME280;35714;55.708;37.478;2022-11-20T11:06:32;99871.63;;;0.30;61.56
49825;BME280;35714;55.708;37.478;2022-11-20T11:09:04;99883.13;;;0.22;60.44
49825;BME280;35714;55.708;37.478;2022-11-20T11:11:34;99887.69;;;0.12;60.31
49825;BME280;35714;55.708;37.478;2022-11-20T11:14:11;99886.88;;;0.11;59.73
49825;BME280;35714;55.708;37.478;2022-11-20T11:16:49;99892.28;;;0.02;59.91
49825;BME280;35714;55.708;37.478;2022-11-20T11:19:16;99890.41;;;-0.06;59.71
49825;BME280;35714;55.708;37.478;2022-11-20T11:22:05;99891.53;;;-0.09;60.05
49825;BME280;35714;55.708;37.478;2022-11-20T11:24:37;99892.06;;;-0.05;59.69
49825;BME280;35714;55.708;37.478;2022-11-20T11:27:11;99892.69;;;-0.11;59.51
49825;BME280;35714;55.708;37.478;2022-11-20T11:29:38;99895.66;;;-0.14;59.83
49825;BME280;35714;55.708;37.478;2022-11-20T11:34:30;99887.13;;;-0.18;59.91
49825;BME280;35714;55.708;37.478;2022-11-20T11:36:58;99895.13;;;-0.18;59.91
49825;BME280;35714;55.708;37.478;2022-11-20T11:39:25;99880.44;;;-0.22;60.10
49825;BME280;35714;55.708;37.478;2022-11-20T11:41:52;99896.25;;;-0.21;60.15
49825;BME280;35714;55.708;37.478;2022-11-20T11:44:35;99879.28;;;-0.20;59.77
49825;BME280;35714;55.708;37.478;2022-11-20T11:47:25;99888.72;;;-0.25;60.19
49825;BME280;35714;55.708;37.478;2022-11-20T11:55:43;99885.44;;;-0.19;60.41
49825;BME280;35714;55.708;37.478;2022-11-20T12:01:03;99914.25;;;-0.05;60.42
49825;BME280;35714;55.708;37.478;2022-11-20T12:03:37;99903.94;;;0.01;60.11
49825;BME280;35714;55.708;37.478;2022-11-20T12:06:12;99905.13;;;0.06;60.15
49825;BME280;35714;55.708;37.478;2022-11-20T12:11:12;99908.19;;;0.11;60.37
49825;BME280;35714;55.708;37.478;2022-11-20T12:16:35;99909.25;;;0.45;60.09
49825;BME280;35714;55.708;37.478;2022-11-20T12:19:01;99906.31;;;0.56;59.18
49825;BME280;35714;55.708;37.478;2022-11-20T12:35:00;99894.06;;;0.71;59.26
49825;BME280;35714;55.708;37.478;2022-11-20T12:37:37;99895.25;;;0.77;58.96
49825;BME280;35714;55.708;37.478;2022-11-20T12:43:20;99894.38;;;0.68;57.76
49825;BME280;35714;55.708;37.478;2022-11-20T12:46:26;99909.59;;;0.50;58.25
49825;BME280;35714;55.708;37.478;2022-11-20T12:55:56;99911.19;;;0.61;58.33
49825;BME280;35714;55.708;37.478;2022-11-20T12:59:12;99915.84;;;0.59;58.41
49825;BME280;35714;55.708;37.478;2022-11-20T13:01:57;99918.97;;;0.54;58.36
49825;BME280;35714;55.708;37.478;2022-11-20T13:06:43;99919.59;;;0.48;58.06
49825;BME280;35714;55.708;37.478;2022-11-20T13:09:13;99931.22;;;0.39;57.97
49825;BME280;35714;55.708;37.478;2022-11-20T13:17:14;99927.44;;;0.23;57.57
49825;BME280;35714;55.708;37.478;2022-11-20T13:19:48;99931.28;;;0.21;57.84
49825;BME280;35714;55.708;37.478;2022-11-20T13:22:24;99923.47;;;0.27;58.14
49825;BME280;35714;55.708;37.478;2022-11-20T13:24:51;99926.19;;;0.35;58.02
49825;BME280;35714;55.708;37.478;2022-11-20T13:27:19;99930.59;;;0.45;57.86
49825;BME280;35714;55.708;37.478;2022-11-20T13:29:58;99931.50;;;0.53;57.62
49825;BME280;35714;55.708;37.478;2022-11-20T13:32:26;99936.03;;;0.61;57.20
49825;BME280;35714;55.708;37.478;2022-11-20T13:35:02;99943.66;;;0.56;56.84
49825;BME280;35714;55.708;37.478;2022-11-20T13:37:36;99945.81;;;0.52;57.39
49825;BME280;35714;55.708;37.478;2022-11-20T13:45:29;99940.63;;;0.25;57.06
49825;BME280;35714;55.708;37.478;2022-11-20T13:47:57;99942.72;;;0.13;57.54
49825;BME280;35714;55.708;37.478;2022-11-20T13:51:04;99954.19;;;0.13;57.91
49825;BME280;35714;55.708;37.478;2022-11-20T13:59:43;99960.00;;;0.27;58.15
49825;BME280;35714;55.708;37.478;2022-11-20T14:02:14;99962.81;;;0.25;57.78
49825;BME280;35714;55.708;37.478;2022-11-20T14:04:45;99958.91;;;0.20;58.23
49825;BME280;35714;55.708;37.478;2022-11-20T14:07:12;99963.72;;;0.16;58.51
49825;BME280;35714;55.708;37.478;2022-11-20T14:09:38;99950.25;;;0.17;58.50
49825;BME280;35714;55.708;37.478;2022-11-20T14:12:15;99951.75;;;0.20;58.67
49825;BME280;35714;55.708;37.478;2022-11-20T14:14:51;99958.72;;;0.13;58.65
49825;BME280;35714;55.708;37.478;2022-11-20T14:17:19;99976.59;;;0.03;58.96
49825;BME280;35714;55.708;37.478;2022-11-20T14:19:47;99980.44;;;0.00;58.88
49825;BME280;35714;55.708;37.478;2022-11-20T14:22:20;99979.88;;;-0.04;59.06
49825;BME280;35714;55.708;37.478;2022-11-20T14:25:07;99987.03;;;-0.04;58.99
49825;BME280;35714;55.708;37.478;2022-11-20T14:30:24;99986.38;;;-0.06;59.37
49825;BME280;35714;55.708;37.478;2022-11-20T14:32:53;99982.47;;;-0.12;59.16
49825;BME280;35714;55.708;37.478;2022-11-20T14:35:49;99980.75;;;-0.03;59.45
49825;BME280;35714;55.708;37.478;2022-11-20T14:38:17;99985.44;;;0.03;59.10
49825;BME280;35714;55.708;37.478;2022-11-20T14:40:44;99996.66;;;0.07;58.99
49825;BME280;35714;55.708;37.478;2022-11-20T14:43:27;100007.91;;;0.18;58.54
49825;BME280;35714;55.708;37.478;2022-11-20T14:46:05;100010.88;;;0.15;58.39
49825;BME280;35714;55.708;37.478;2022-11-20T14:48:46;100008.13;;;0.07;58.43
49825;BME280;35714;55.708;37.478;2022-11-20T14:51:25;100017.13;;;0.06;58.47
49825;BME280;35714;55.708;37.478;2022-11-20T14:53:52;100005.72;;;-0.04;58.57